Aeroporto :
LOGIN :

Iscrizione | Disclaimer

   EN    FR    IT 

 










Sommario :    VFR   VFR Marginale   IFR   IFR Intensivo   IFR Molto Intensivo
Visibilità : 
Base nubi : 
>= 8 km
>= 3000ft
5 / 8 km
1000 / 3000 ft
1500m / 5 km
500 / 1000 ft
800 / 1500m
200 / 500 ft
< 800m
< 200 ft
Simboli :   Temporali  Nebbia  Neve Forte  Precipitazioni Forti  Vento > 20 kt
SIGMETs :   Varie  Temporali  Ghiacco  Turbolenza  Onda orograficha  Ceneri Vulcaniche






- Altitudine del aeroporto : 194 ft


EBCV - Chièvres

ULTIMO METAR :
  • 291925Z AUTO 22010KT 9999 FEW160/// ///// Q1014 BLU

METARs OBSOLETI :
  • 291855Z AUTO 22010KT 9999 FEW027/// ///// Q1014 BLU
  • 291825Z AUTO 23009KT 9999 FEW031/// ///// Q1013 BLU
  • 291755Z AUTO 23010KT 9999 BKN032/// BKN170/// ///// Q1013 BLU
  • 291725Z AUTO 24008KT 9999 SCT033/// ///// Q1013 BLU
  • 291655Z AUTO 25007KT 9999 FEW035/// SCT180/// BKN210/// ///// Q1013 BLU

TAF TAF EBCV
Valido dal 29 a 19 ore il 30 a 07 ore UTC


291552Z 2919/3007 28012KT 9999 SCT035 SCT230
BECMG 3003/3005 21012KT BKN030 BKN200 BY EBWM



MetMap, La meteo Aeronautica in un colpo d'occhio ! - Copyright ORBIFLY Dicembre 2007 - Disclaimer

ORBIFLY MET'MAP TEAM :

Programmazione e sviluppo : Alexandra Zaïnal
Concezione : Baudouin d'Aumeries
Aiuto per la programmazione : Marc-Olivier Méhu
Supporto tecnico e logistico : Manuel Goepfert
Aiuto per la traduzione : Arnaldo La Scala

Contatto : metmap@orbifly.com




FONTI E CREDITI :

   NOAA